sensor_id;sensor_type;location;lat;lon;timestamp;pressure;altitude;pressure_sealevel;temperature;humidity
75996;BME280;64681;49.738;9.004;2024-02-28T00:00:37;99629.38;;;2.52;93.12
75996;BME280;64681;49.738;9.004;2024-02-28T00:03:02;99628.28;;;2.53;93.36
75996;BME280;64681;49.738;9.004;2024-02-28T00:05:28;99631.53;;;2.24;94.91
75996;BME280;64681;49.738;9.004;2024-02-28T00:07:53;99632.84;;;2.27;94.20
75996;BME280;64681;49.738;9.004;2024-02-28T00:10:19;99637.06;;;2.22;94.17
75996;BME280;64681;49.738;9.004;2024-02-28T00:12:45;99638.16;;;2.16;93.77
75996;BME280;64681;49.738;9.004;2024-02-28T00:15:10;99641.59;;;2.07;94.91
75996;BME280;64681;49.738;9.004;2024-02-28T00:17:40;99644.22;;;2.12;94.00
75996;BME280;64681;49.738;9.004;2024-02-28T00:20:07;99639.75;;;2.02;94.38
75996;BME280;64681;49.738;9.004;2024-02-28T00:22:32;99640.50;;;2.08;93.76
75996;BME280;64681;49.738;9.004;2024-02-28T00:24:58;99641.06;;;1.99;93.77
75996;BME280;64681;49.738;9.004;2024-02-28T00:27:26;99642.66;;;1.90;94.20
75996;BME280;64681;49.738;9.004;2024-02-28T00:29:51;99643.72;;;1.89;95.10
75996;BME280;64681;49.738;9.004;2024-02-28T00:32:16;99643.19;;;1.87;95.11
75996;BME280;64681;49.738;9.004;2024-02-28T00:34:42;99650.28;;;1.97;94.14
75996;BME280;64681;49.738;9.004;2024-02-28T00:37:07;99644.78;;;1.83;94.28
75996;BME280;64681;49.738;9.004;2024-02-28T00:39:33;99658.19;;;1.66;95.25
75996;BME280;64681;49.738;9.004;2024-02-28T00:41:58;99655.00;;;1.43;98.26
75996;BME280;64681;49.738;9.004;2024-02-28T00:44:24;99651.88;;;1.62;95.95
75996;BME280;64681;49.738;9.004;2024-02-28T00:46:50;99662.16;;;1.68;95.60
75996;BME280;64681;49.738;9.004;2024-02-28T00:49:15;99654.25;;;1.68;95.43
75996;BME280;64681;49.738;9.004;2024-02-28T00:51:40;99650.03;;;1.72;94.42
75996;BME280;64681;49.738;9.004;2024-02-28T00:54:06;99654.00;;;1.65;94.28
75996;BME280;64681;49.738;9.004;2024-02-28T00:56:33;99655.25;;;1.41;96.42
75996;BME280;64681;49.738;9.004;2024-02-28T00:58:59;99648.41;;;1.46;95.52
75996;BME280;64681;49.738;9.004;2024-02-28T01:01:24;99648.16;;;1.42;95.40
75996;BME280;64681;49.738;9.004;2024-02-28T01:03:50;99651.03;;;1.46;95.31
75996;BME280;64681;49.738;9.004;2024-02-28T01:06:15;99650.50;;;1.38;94.97
75996;BME280;64681;49.738;9.004;2024-02-28T01:08:41;99651.06;;;1.35;94.85
75996;BME280;64681;49.738;9.004;2024-02-28T01:11:07;99657.09;;;1.31;95.83
75996;BME280;64681;49.738;9.004;2024-02-28T01:13:32;99649.19;;;1.31;95.05
75996;BME280;64681;49.738;9.004;2024-02-28T01:15:58;99657.31;;;1.19;96.11
75996;BME280;64681;49.738;9.004;2024-02-28T01:18:25;99657.06;;;1.10;97.43
75996;BME280;64681;49.738;9.004;2024-02-28T01:20:50;99659.69;;;1.15;97.28
75996;BME280;64681;49.738;9.004;2024-02-28T01:23:17;99663.91;;;1.21;97.07
75996;BME280;64681;49.738;9.004;2024-02-28T01:25:43;99662.63;;;1.29;95.76
75996;BME280;64681;49.738;9.004;2024-02-28T01:28:08;99664.44;;;1.29;95.19
75996;BME280;64681;49.738;9.004;2024-02-28T01:30:33;99665.53;;;1.33;94.68
75996;BME280;64681;49.738;9.004;2024-02-28T01:33:00;99671.25;;;1.19;94.97
75996;BME280;64681;49.738;9.004;2024-02-28T01:35:25;99678.09;;;1.20;94.21
75996;BME280;64681;49.738;9.004;2024-02-28T01:37:50;99673.34;;;1.02;95.69
75996;BME280;64681;49.738;9.004;2024-02-28T01:40:16;99678.88;;;1.05;94.76
75996;BME280;64681;49.738;9.004;2024-02-28T01:42:41;99671.16;;;0.88;95.76
75996;BME280;64681;49.738;9.004;2024-02-28T01:45:10;99679.84;;;0.94;96.13
75996;BME280;64681;49.738;9.004;2024-02-28T01:47:38;99678.31;;;1.03;95.38
75996;BME280;64681;49.738;9.004;2024-02-28T01:50:04;99678.81;;;1.00;95.04
75996;BME280;64681;49.738;9.004;2024-02-28T01:52:30;99677.22;;;0.94;95.06
75996;BME280;64681;49.738;9.004;2024-02-28T01:54:56;99678.03;;;1.00;94.90
75996;BME280;64681;49.738;9.004;2024-02-28T01:57:22;99683.81;;;0.97;94.35
75996;BME280;64681;49.738;9.004;2024-02-28T01:59:48;99688.00;;;0.92;94.03
75996;BME280;64681;49.738;9.004;2024-02-28T02:02:13;99686.13;;;0.83;94.42
75996;BME280;64681;49.738;9.004;2024-02-28T02:04:39;99688.75;;;0.83;94.25
75996;BME280;64681;49.738;9.004;2024-02-28T02:07:06;99697.41;;;0.78;94.53
75996;BME280;64681;49.738;9.004;2024-02-28T02:09:33;99695.84;;;0.77;94.69
75996;BME280;64681;49.738;9.004;2024-02-28T02:11:59;99698.19;;;0.78;94.34
75996;BME280;64681;49.738;9.004;2024-02-28T02:14:25;99705.84;;;0.80;94.34
75996;BME280;64681;49.738;9.004;2024-02-28T02:16:50;99707.72;;;0.90;94.68
75996;BME280;64681;49.738;9.004;2024-02-28T02:19:16;99711.19;;;0.96;94.69
75996;BME280;64681;49.738;9.004;2024-02-28T02:21:56;99713.81;;;1.06;95.63
75996;BME280;64681;49.738;9.004;2024-02-28T02:24:22;99705.97;;;1.11;96.07
75996;BME280;64681;49.738;9.004;2024-02-28T02:26:48;99712.06;;;1.27;96.46
75996;BME280;64681;49.738;9.004;2024-02-28T02:29:15;99715.22;;;1.29;96.30
75996;BME280;64681;49.738;9.004;2024-02-28T02:31:41;99708.41;;;1.38;96.66
75996;BME280;64681;49.738;9.004;2024-02-28T02:34:06;99706.56;;;1.44;96.59
75996;BME280;64681;49.738;9.004;2024-02-28T02:36:32;99714.78;;;1.53;95.91
75996;BME280;64681;49.738;9.004;2024-02-28T02:38:58;99707.91;;;1.62;96.02
75996;BME280;64681;49.738;9.004;2024-02-28T02:41:23;99721.09;;;1.67;95.87
75996;BME280;64681;49.738;9.004;2024-02-28T02:43:48;99720.31;;;1.62;96.18
75996;BME280;64681;49.738;9.004;2024-02-28T02:46:14;99714.53;;;1.65;96.43
75996;BME280;64681;49.738;9.004;2024-02-28T02:48:39;99729.03;;;1.88;97.11
75996;BME280;64681;49.738;9.004;2024-02-28T02:51:05;99725.09;;;2.01;96.68
75996;BME280;64681;49.738;9.004;2024-02-28T02:53:30;99725.06;;;2.06;96.42
75996;BME280;64681;49.738;9.004;2024-02-28T02:55:56;99724.53;;;2.19;96.29
75996;BME280;64681;49.738;9.004;2024-02-28T02:58:21;99721.13;;;2.29;95.55
75996;BME280;64681;49.738;9.004;2024-02-28T03:00:47;99728.75;;;2.36;95.76
75996;BME280;64681;49.738;9.004;2024-02-28T03:03:12;99732.69;;;2.38;95.79
75996;BME280;64681;49.738;9.004;2024-02-28T03:05:37;99730.53;;;2.61;93.80
75996;BME280;64681;49.738;9.004;2024-02-28T03:08:03;99746.13;;;2.52;94.67
75996;BME280;64681;49.738;9.004;2024-02-28T03:10:28;99735.31;;;2.49;94.68
75996;BME280;64681;49.738;9.004;2024-02-28T03:12:54;99733.75;;;2.48;94.62
75996;BME280;64681;49.738;9.004;2024-02-28T03:15:20;99739.53;;;2.55;94.93
75996;BME280;64681;49.738;9.004;2024-02-28T03:17:45;99727.66;;;2.63;94.79
75996;BME280;64681;49.738;9.004;2024-02-28T03:20:11;99735.31;;;2.54;95.23
75996;BME280;64681;49.738;9.004;2024-02-28T03:22:38;99730.31;;;2.52;94.87
75996;BME280;64681;49.738;9.004;2024-02-28T03:25:04;99729.03;;;2.34;95.28
75996;BME280;64681;49.738;9.004;2024-02-28T03:27:30;99739.56;;;2.34;95.35
75996;BME280;64681;49.738;9.004;2024-02-28T03:29:55;99743.50;;;2.52;95.01
75996;BME280;64681;49.738;9.004;2024-02-28T03:32:21;99751.13;;;2.59;93.62
75996;BME280;64681;49.738;9.004;2024-02-28T03:34:46;99758.75;;;2.71;93.26
75996;BME280;64681;49.738;9.004;2024-02-28T03:37:11;99759.50;;;2.77;94.11
75996;BME280;64681;49.738;9.004;2024-02-28T03:39:37;99751.88;;;2.75;94.41
75996;BME280;64681;49.738;9.004;2024-02-28T03:42:02;99750.03;;;2.81;95.18
75996;BME280;64681;49.738;9.004;2024-02-28T03:44:28;99754.75;;;2.89;94.86
75996;BME280;64681;49.738;9.004;2024-02-28T03:46:53;99751.84;;;2.91;95.21
75996;BME280;64681;49.738;9.004;2024-02-28T03:49:19;99769.47;;;3.00;93.85
75996;BME280;64681;49.738;9.004;2024-02-28T03:51:44;99756.00;;;3.07;92.28
75996;BME280;64681;49.738;9.004;2024-02-28T03:54:10;99763.94;;;3.02;91.64
75996;BME280;64681;49.738;9.004;2024-02-28T03:56:35;99764.25;;;2.90;92.41
75996;BME280;64681;49.738;9.004;2024-02-28T03:59:01;99770.31;;;2.85;93.05
75996;BME280;64681;49.738;9.004;2024-02-28T04:01:26;99766.88;;;2.90;91.78
75996;BME280;64681;49.738;9.004;2024-02-28T04:03:52;99771.06;;;2.91;92.35
75996;BME280;64681;49.738;9.004;2024-02-28T04:06:17;99770.09;;;2.46;91.93
75996;BME280;64681;49.738;9.004;2024-02-28T04:08:42;99768.53;;;2.60;93.79
75996;BME280;64681;49.738;9.004;2024-02-28T04:11:08;99770.38;;;2.60;94.20
75996;BME280;64681;49.738;9.004;2024-02-28T04:13:34;99781.16;;;2.74;93.81
75996;BME280;64681;49.738;9.004;2024-02-28T04:15:59;99780.06;;;2.90;93.45
75996;BME280;64681;49.738;9.004;2024-02-28T04:18:25;99785.84;;;2.97;93.02
75996;BME280;64681;49.738;9.004;2024-02-28T04:20:51;99788.75;;;3.01;93.30
75996;BME280;64681;49.738;9.004;2024-02-28T04:23:16;99794.00;;;3.06;93.31
75996;BME280;64681;49.738;9.004;2024-02-28T04:25:42;99790.09;;;2.98;92.95
75996;BME280;64681;49.738;9.004;2024-02-28T04:28:08;99790.88;;;2.89;93.30
75996;BME280;64681;49.738;9.004;2024-02-28T04:30:34;99796.66;;;3.01;92.86
75996;BME280;64681;49.738;9.004;2024-02-28T04:32:59;99792.72;;;2.93;93.76
75996;BME280;64681;49.738;9.004;2024-02-28T04:35:25;99797.16;;;3.08;94.01
75996;BME280;64681;49.738;9.004;2024-02-28T04:37:50;99801.38;;;3.14;93.06
75996;BME280;64681;49.738;9.004;2024-02-28T04:40:15;99803.19;;;3.19;92.34
75996;BME280;64681;49.738;9.004;2024-02-28T04:42:42;99799.84;;;2.82;92.02
75996;BME280;64681;49.738;9.004;2024-02-28T04:45:08;99802.25;;;2.74;93.20
75996;BME280;64681;49.738;9.004;2024-02-28T04:47:34;99813.56;;;2.90;93.98
75996;BME280;64681;49.738;9.004;2024-02-28T04:49:59;99810.88;;;3.05;94.24
75996;BME280;64681;49.738;9.004;2024-02-28T04:52:25;99817.22;;;3.09;93.72
75996;BME280;64681;49.738;9.004;2024-02-28T04:54:51;99818.78;;;3.15;93.17
75996;BME280;64681;49.738;9.004;2024-02-28T04:57:16;99820.59;;;3.25;93.71
75996;BME280;64681;49.738;9.004;2024-02-28T04:59:44;99825.81;;;3.41;92.98
75996;BME280;64681;49.738;9.004;2024-02-28T05:02:09;99821.28;;;3.52;91.57
75996;BME280;64681;49.738;9.004;2024-02-28T05:04:35;99834.25;;;3.48;92.11
75996;BME280;64681;49.738;9.004;2024-02-28T05:07:00;99848.16;;;3.64;89.72
75996;BME280;64681;49.738;9.004;2024-02-28T05:09:26;99840.53;;;3.57;90.46
75996;BME280;64681;49.738;9.004;2024-02-28T05:11:51;99838.19;;;3.56;91.25
75996;BME280;64681;49.738;9.004;2024-02-28T05:14:17;99845.50;;;3.69;89.54
75996;BME280;64681;49.738;9.004;2024-02-28T05:16:42;99845.78;;;3.68;88.46
75996;BME280;64681;49.738;9.004;2024-02-28T05:19:08;99850.56;;;3.55;89.46
75996;BME280;64681;49.738;9.004;2024-02-28T05:21:40;99845.09;;;3.36;89.97
75996;BME280;64681;49.738;9.004;2024-02-28T05:24:06;99846.28;;;2.68;92.43
75996;BME280;64681;49.738;9.004;2024-02-28T05:26:31;99843.88;;;2.97;93.22
75996;BME280;64681;49.738;9.004;2024-02-28T05:28:58;99836.19;;;3.11;93.27
75996;BME280;64681;49.738;9.004;2024-02-28T05:31:25;99849.06;;;3.39;92.40
75996;BME280;64681;49.738;9.004;2024-02-28T05:33:53;99845.84;;;3.52;91.36
75996;BME280;64681;49.738;9.004;2024-02-28T05:36:20;99849.72;;;3.70;89.86
75996;BME280;64681;49.738;9.004;2024-02-28T05:38:46;99848.47;;;3.57;89.64
75996;BME280;64681;49.738;9.004;2024-02-28T05:41:11;99854.59;;;3.47;91.37
75996;BME280;64681;49.738;9.004;2024-02-28T05:43:38;99857.00;;;3.33;91.58
75996;BME280;64681;49.738;9.004;2024-02-28T05:46:03;99865.63;;;3.60;91.17
75996;BME280;64681;49.738;9.004;2024-02-28T05:48:29;99871.59;;;3.81;88.75
75996;BME280;64681;49.738;9.004;2024-02-28T05:50:54;99874.50;;;3.85;88.27
75996;BME280;64681;49.738;9.004;2024-02-28T05:53:20;99877.41;;;3.83;88.35
75996;BME280;64681;49.738;9.004;2024-02-28T05:55:46;99890.13;;;3.71;89.53
75996;BME280;64681;49.738;9.004;2024-02-28T05:58:13;99893.06;;;3.69;89.79
75996;BME280;64681;49.738;9.004;2024-02-28T06:00:38;99891.94;;;3.80;89.82
75996;BME280;64681;49.738;9.004;2024-02-28T06:03:04;99895.63;;;3.85;89.12
75996;BME280;64681;49.738;9.004;2024-02-28T06:05:29;99900.41;;;3.77;88.89
75996;BME280;64681;49.738;9.004;2024-02-28T06:07:55;99904.13;;;3.76;88.84
75996;BME280;64681;49.738;9.004;2024-02-28T06:10:20;99910.69;;;3.79;88.92
75996;BME280;64681;49.738;9.004;2024-02-28T06:12:46;99913.03;;;3.91;88.81
75996;BME280;64681;49.738;9.004;2024-02-28T06:15:12;99915.69;;;3.80;89.32
75996;BME280;64681;49.738;9.004;2024-02-28T06:17:37;99926.28;;;3.80;90.11
75996;BME280;64681;49.738;9.004;2024-02-28T06:20:03;99917.56;;;3.80;90.77
75996;BME280;64681;49.738;9.004;2024-02-28T06:22:28;99913.78;;;4.02;87.83
75996;BME280;64681;49.738;9.004;2024-02-28T06:24:54;99928.59;;;3.92;88.95
75996;BME280;64681;49.738;9.004;2024-02-28T06:27:19;99935.03;;;3.60;89.71
75996;BME280;64681;49.738;9.004;2024-02-28T06:29:45;99937.09;;;3.89;88.62
75996;BME280;64681;49.738;9.004;2024-02-28T06:32:11;99938.16;;;3.83;89.64
75996;BME280;64681;49.738;9.004;2024-02-28T06:34:36;99944.25;;;3.78;89.57
75996;BME280;64681;49.738;9.004;2024-02-28T06:37:01;99944.06;;;3.59;91.44
75996;BME280;64681;49.738;9.004;2024-02-28T06:39:27;99940.34;;;3.55;90.85
75996;BME280;64681;49.738;9.004;2024-02-28T06:41:52;99950.38;;;3.58;91.88
75996;BME280;64681;49.738;9.004;2024-02-28T06:44:18;99949.00;;;3.76;91.13
75996;BME280;64681;49.738;9.004;2024-02-28T06:46:44;99949.38;;;3.28;91.89
75996;BME280;64681;49.738;9.004;2024-02-28T06:49:09;99944.91;;;3.24;93.68
75996;BME280;64681;49.738;9.004;2024-02-28T06:51:35;99963.59;;;3.48;93.30
75996;BME280;64681;49.738;9.004;2024-02-28T06:54:00;99956.91;;;3.82;90.27
75996;BME280;64681;49.738;9.004;2024-02-28T06:56:26;99968.56;;;3.75;90.99
75996;BME280;64681;49.738;9.004;2024-02-28T06:58:51;99966.41;;;3.88;90.86
75996;BME280;64681;49.738;9.004;2024-02-28T07:01:17;99969.53;;;3.95;90.54
75996;BME280;64681;49.738;9.004;2024-02-28T07:03:43;99978.78;;;4.03;90.31
75996;BME280;64681;49.738;9.004;2024-02-28T07:06:11;99977.69;;;4.09;89.15
75996;BME280;64681;49.738;9.004;2024-02-28T07:08:36;99972.97;;;4.01;90.07
75996;BME280;64681;49.738;9.004;2024-02-28T07:11:02;99975.53;;;4.21;89.57
75996;BME280;64681;49.738;9.004;2024-02-28T07:13:28;99975.78;;;4.25;89.79
75996;BME280;64681;49.738;9.004;2024-02-28T07:15:54;99976.53;;;4.36;88.85
75996;BME280;64681;49.738;9.004;2024-02-28T07:18:20;99982.88;;;4.30;88.88
75996;BME280;64681;49.738;9.004;2024-02-28T07:20:46;99983.03;;;4.49;88.28
75996;BME280;64681;49.738;9.004;2024-02-28T07:23:11;99983.81;;;4.54;87.49
75996;BME280;64681;49.738;9.004;2024-02-28T07:25:37;99976.97;;;4.48;86.84
75996;BME280;64681;49.738;9.004;2024-02-28T07:28:02;99971.88;;;4.62;85.13
75996;BME280;64681;49.738;9.004;2024-02-28T07:30:28;99971.88;;;4.62;86.01
75996;BME280;64681;49.738;9.004;2024-02-28T07:32:54;99971.72;;;4.83;86.28
75996;BME280;64681;49.738;9.004;2024-02-28T07:35:20;99964.66;;;5.07;86.28
75996;BME280;64681;49.738;9.004;2024-02-28T07:37:46;99965.47;;;5.37;84.29
75996;BME280;64681;49.738;9.004;2024-02-28T07:40:12;99962.38;;;5.25;82.90
75996;BME280;64681;49.738;9.004;2024-02-28T07:42:37;99962.09;;;5.56;83.21
75996;BME280;64681;49.738;9.004;2024-02-28T07:45:03;99952.75;;;5.64;81.56
75996;BME280;64681;49.738;9.004;2024-02-28T07:47:28;99964.03;;;5.99;79.94
75996;BME280;64681;49.738;9.004;2024-02-28T07:49:54;99972.38;;;6.11;77.27
75996;BME280;64681;49.738;9.004;2024-02-28T07:52:20;99962.69;;;6.01;78.51
75996;BME280;64681;49.738;9.004;2024-02-28T07:54:45;99966.78;;;5.89;80.37
75996;BME280;64681;49.738;9.004;2024-02-28T07:57:11;99959.78;;;5.98;80.01
75996;BME280;64681;49.738;9.004;2024-02-28T07:59:40;99963.47;;;6.02;79.41
75996;BME280;64681;49.738;9.004;2024-02-28T08:02:06;99967.31;;;6.15;79.67
75996;BME280;64681;49.738;9.004;2024-02-28T08:04:31;99970.94;;;6.19;79.12
75996;BME280;64681;49.738;9.004;2024-02-28T08:06:57;99965.09;;;6.41;78.93
75996;BME280;64681;49.738;9.004;2024-02-28T08:09:22;99966.53;;;6.33;79.04
75996;BME280;64681;49.738;9.004;2024-02-28T08:11:48;99970.84;;;6.29;79.04
75996;BME280;64681;49.738;9.004;2024-02-28T08:14:13;99974.00;;;6.31;76.73
75996;BME280;64681;49.738;9.004;2024-02-28T08:16:39;99970.97;;;6.38;76.05
75996;BME280;64681;49.738;9.004;2024-02-28T08:19:04;99960.63;;;5.69;78.77
75996;BME280;64681;49.738;9.004;2024-02-28T08:21:29;99973.81;;;6.23;77.80
75996;BME280;64681;49.738;9.004;2024-02-28T08:23:55;99975.75;;;6.36;78.21
75996;BME280;64681;49.738;9.004;2024-02-28T08:26:23;99979.44;;;6.40;78.24
75996;BME280;64681;49.738;9.004;2024-02-28T08:28:48;99970.72;;;6.40;76.65
75996;BME280;64681;49.738;9.004;2024-02-28T08:31:14;99966.22;;;5.92;78.65
75996;BME280;64681;49.738;9.004;2024-02-28T08:33:40;99982.47;;;5.85;80.27
75996;BME280;64681;49.738;9.004;2024-02-28T08:36:06;99984.69;;;6.02;79.81
75996;BME280;64681;49.738;9.004;2024-02-28T08:38:32;99980.44;;;6.44;77.13
75996;BME280;64681;49.738;9.004;2024-02-28T08:40:57;99982.44;;;6.33;76.52
75996;BME280;64681;49.738;9.004;2024-02-28T08:43:22;99995.66;;;6.39;77.45
75996;BME280;64681;49.738;9.004;2024-02-28T08:45:48;99997.28;;;6.54;76.87
75996;BME280;64681;49.738;9.004;2024-02-28T08:48:17;100004.81;;;6.65;75.78
75996;BME280;64681;49.738;9.004;2024-02-28T08:50:42;100012.69;;;6.52;75.89
75996;BME280;64681;49.738;9.004;2024-02-28T08:53:08;100019.81;;;5.59;78.65
75996;BME280;64681;49.738;9.004;2024-02-28T08:55:33;100018.31;;;6.07;77.43
75996;BME280;64681;49.738;9.004;2024-02-28T08:57:58;100020.78;;;6.22;77.29
75996;BME280;64681;49.738;9.004;2024-02-28T09:00:24;100019.94;;;6.02;78.58
75996;BME280;64681;49.738;9.004;2024-02-28T09:02:50;100003.38;;;6.35;75.98
75996;BME280;64681;49.738;9.004;2024-02-28T09:05:16;100018.00;;;5.84;78.34
75996;BME280;64681;49.738;9.004;2024-02-28T09:07:41;100018.75;;;5.60;80.92
75996;BME280;64681;49.738;9.004;2024-02-28T09:10:07;100021.31;;;5.06;83.09
75996;BME280;64681;49.738;9.004;2024-02-28T09:12:32;100023.25;;;5.60;81.86
75996;BME280;64681;49.738;9.004;2024-02-28T09:14:58;100025.25;;;5.97;79.65
75996;BME280;64681;49.738;9.004;2024-02-28T09:17:24;100023.63;;;5.77;81.46
75996;BME280;64681;49.738;9.004;2024-02-28T09:19:50;100025.97;;;5.79;81.47
75996;BME280;64681;49.738;9.004;2024-02-28T09:22:15;100023.69;;;6.45;77.50
75996;BME280;64681;49.738;9.004;2024-02-28T09:24:42;100027.06;;;5.48;81.50
75996;BME280;64681;49.738;9.004;2024-02-28T09:27:07;100029.34;;;6.14;80.14
75996;BME280;64681;49.738;9.004;2024-02-28T09:29:33;100028.84;;;6.74;76.69
75996;BME280;64681;49.738;9.004;2024-02-28T09:31:58;100032.78;;;7.15;75.21
75996;BME280;64681;49.738;9.004;2024-02-28T09:34:24;100020.00;;;7.64;73.51
75996;BME280;64681;49.738;9.004;2024-02-28T09:36:49;100040.53;;;8.19;71.31
75996;BME280;64681;49.738;9.004;2024-02-28T09:39:15;100044.47;;;8.08;71.39
75996;BME280;64681;49.738;9.004;2024-02-28T09:41:40;100035.28;;;8.56;68.56
75996;BME280;64681;49.738;9.004;2024-02-28T09:44:07;100037.47;;;8.26;69.59
75996;BME280;64681;49.738;9.004;2024-02-28T09:46:34;100038.34;;;8.21;70.20
75996;BME280;64681;49.738;9.004;2024-02-28T09:49:04;100045.53;;;7.79;70.91
75996;BME280;64681;49.738;9.004;2024-02-28T09:51:33;100058.59;;;6.52;76.70
75996;BME280;64681;49.738;9.004;2024-02-28T09:54:01;100060.34;;;7.19;76.95
75996;BME280;64681;49.738;9.004;2024-02-28T09:56:27;100057.38;;;8.29;70.77
75996;BME280;64681;49.738;9.004;2024-02-28T09:58:54;100062.59;;;8.62;69.21
75996;BME280;64681;49.738;9.004;2024-02-28T10:01:21;100068.38;;;8.64;67.45
75996;BME280;64681;49.738;9.004;2024-02-28T10:03:50;100064.66;;;8.37;68.92
75996;BME280;64681;49.738;9.004;2024-02-28T10:06:17;100072.06;;;8.26;67.82
75996;BME280;64681;49.738;9.004;2024-02-28T10:08:42;100067.81;;;8.11;68.74
75996;BME280;64681;49.738;9.004;2024-02-28T10:11:08;100064.25;;;7.88;69.47
75996;BME280;64681;49.738;9.004;2024-02-28T10:13:33;100076.03;;;7.82;70.17
75996;BME280;64681;49.738;9.004;2024-02-28T10:15:59;100072.03;;;7.84;70.44
75996;BME280;64681;49.738;9.004;2024-02-28T10:18:26;100077.56;;;7.88;69.69
75996;BME280;64681;49.738;9.004;2024-02-28T10:20:51;100084.88;;;6.73;76.40
75996;BME280;64681;49.738;9.004;2024-02-28T10:23:17;100094.84;;;6.81;76.26
75996;BME280;64681;49.738;9.004;2024-02-28T10:25:43;100085.28;;;7.37;73.20
75996;BME280;64681;49.738;9.004;2024-02-28T10:28:09;100087.38;;;7.73;71.85
75996;BME280;64681;49.738;9.004;2024-02-28T10:30:39;100084.06;;;7.63;73.09
75996;BME280;64681;49.738;9.004;2024-02-28T10:33:10;100079.66;;;7.58;73.43
75996;BME280;64681;49.738;9.004;2024-02-28T10:35:36;100075.78;;;6.98;75.07
75996;BME280;64681;49.738;9.004;2024-02-28T10:38:02;100086.78;;;5.99;80.56
75996;BME280;64681;49.738;9.004;2024-02-28T10:40:27;100080.34;;;6.54;77.42
75996;BME280;64681;49.738;9.004;2024-02-28T10:42:54;100071.47;;;6.83;76.65
75996;BME280;64681;49.738;9.004;2024-02-28T10:45:24;100075.56;;;5.78;79.94
75996;BME280;64681;49.738;9.004;2024-02-28T10:47:51;100086.31;;;5.87;80.71
75996;BME280;64681;49.738;9.004;2024-02-28T10:50:17;100085.16;;;5.69;83.35
75996;BME280;64681;49.738;9.004;2024-02-28T10:52:44;100091.22;;;5.75;85.74
75996;BME280;64681;49.738;9.004;2024-02-28T10:55:13;100081.78;;;6.22;82.33
75996;BME280;64681;49.738;9.004;2024-02-28T10:57:39;100075.09;;;6.25;82.76
75996;BME280;64681;49.738;9.004;2024-02-28T11:00:06;100079.50;;;6.59;80.17
75996;BME280;64681;49.738;9.004;2024-02-28T11:02:32;100084.28;;;6.32;80.67
75996;BME280;64681;49.738;9.004;2024-02-28T11:04:59;100080.38;;;6.49;79.59
75996;BME280;64681;49.738;9.004;2024-02-28T11:07:27;100087.91;;;6.66;79.67
75996;BME280;64681;49.738;9.004;2024-02-28T11:09:55;100078.63;;;6.82;79.15
75996;BME280;64681;49.738;9.004;2024-02-28T11:12:25;100097.06;;;6.74;77.19
75996;BME280;64681;49.738;9.004;2024-02-28T11:14:59;100081.72;;;6.71;75.52
75996;BME280;64681;49.738;9.004;2024-02-28T11:17:29;100085.69;;;6.92;73.96
75996;BME280;64681;49.738;9.004;2024-02-28T11:19:55;100084.09;;;6.91;75.19
75996;BME280;64681;49.738;9.004;2024-02-28T11:22:20;100075.28;;;7.15;72.32
75996;BME280;64681;49.738;9.004;2024-02-28T11:24:47;100079.91;;;6.47;74.35
75996;BME280;64681;49.738;9.004;2024-02-28T11:27:13;100071.00;;;6.38;74.78
75996;BME280;64681;49.738;9.004;2024-02-28T11:29:39;100070.38;;;6.46;76.37
75996;BME280;64681;49.738;9.004;2024-02-28T11:32:05;100066.28;;;6.73;73.69
75996;BME280;64681;49.738;9.004;2024-02-28T11:34:30;100068.38;;;6.76;72.53
75996;BME280;64681;49.738;9.004;2024-02-28T11:36:56;100067.88;;;6.74;72.34
75996;BME280;64681;49.738;9.004;2024-02-28T11:39:24;100062.88;;;6.91;72.25
75996;BME280;64681;49.738;9.004;2024-02-28T11:41:53;100062.47;;;7.17;71.89
75996;BME280;64681;49.738;9.004;2024-02-28T11:44:19;100055.81;;;7.53;71.25
75996;BME280;64681;49.738;9.004;2024-02-28T11:46:45;100056.56;;;7.72;69.38
75996;BME280;64681;49.738;9.004;2024-02-28T11:49:15;100054.28;;;7.33;68.79
75996;BME280;64681;49.738;9.004;2024-02-28T11:51:41;100055.53;;;7.21;69.43
75996;BME280;64681;49.738;9.004;2024-02-28T11:54:08;100047.72;;;7.44;70.38
75996;BME280;64681;49.738;9.004;2024-02-28T11:56:40;100053.09;;;7.72;69.64
75996;BME280;64681;49.738;9.004;2024-02-28T11:59:06;100046.53;;;7.83;67.25
75996;BME280;64681;49.738;9.004;2024-02-28T12:01:37;100043.00;;;7.88;67.67
75996;BME280;64681;49.738;9.004;2024-02-28T12:04:04;100046.16;;;8.18;62.81
75996;BME280;64681;49.738;9.004;2024-02-28T12:06:31;100031.34;;;7.84;64.88
75996;BME280;64681;49.738;9.004;2024-02-28T12:08:56;100032.16;;;8.12;65.46
75996;BME280;64681;49.738;9.004;2024-02-28T12:11:24;100026.25;;;8.15;65.45
75996;BME280;64681;49.738;9.004;2024-02-28T12:13:52;100019.34;;;8.14;65.48
75996;BME280;64681;49.738;9.004;2024-02-28T12:16:22;100027.22;;;8.33;64.85
75996;BME280;64681;49.738;9.004;2024-02-28T12:18:47;100028.38;;;8.41;64.44
75996;BME280;64681;49.738;9.004;2024-02-28T12:21:13;100028.50;;;8.50;63.49
75996;BME280;64681;49.738;9.004;2024-02-28T12:23:38;100015.78;;;8.47;63.55
75996;BME280;64681;49.738;9.004;2024-02-28T12:26:04;100016.22;;;8.63;64.26
75996;BME280;64681;49.738;9.004;2024-02-28T12:28:29;100009.53;;;8.65;61.78
75996;BME280;64681;49.738;9.004;2024-02-28T12:30:56;100005.38;;;8.73;57.75
75996;BME280;64681;49.738;9.004;2024-02-28T12:33:21;99996.53;;;9.09;56.23
75996;BME280;64681;49.738;9.004;2024-02-28T12:35:48;99992.41;;;9.26;54.63
75996;BME280;64681;49.738;9.004;2024-02-28T12:38:13;99988.47;;;9.23;56.34
75996;BME280;64681;49.738;9.004;2024-02-28T12:40:40;100003.56;;;9.28;54.64
75996;BME280;64681;49.738;9.004;2024-02-28T12:43:07;99997.03;;;8.89;54.55
75996;BME280;64681;49.738;9.004;2024-02-28T12:45:33;100001.50;;;9.02;56.91
75996;BME280;64681;49.738;9.004;2024-02-28T12:47:58;100003.16;;;9.12;57.34
75996;BME280;64681;49.738;9.004;2024-02-28T12:50:24;100004.16;;;9.25;57.01
75996;BME280;64681;49.738;9.004;2024-02-28T12:52:50;99994.09;;;9.44;56.84
75996;BME280;64681;49.738;9.004;2024-02-28T12:55:19;99991.75;;;9.20;54.45
75996;BME280;64681;49.738;9.004;2024-02-28T12:57:45;99986.09;;;9.44;54.26
75996;BME280;64681;49.738;9.004;2024-02-28T13:00:11;99994.69;;;9.41;55.48